Time;durP1;ratioP1;P1;durP2;ratioP2;P2;SDS_P1;SDS_P2;PMS_P1;PMS_P2;Temp;Humidity;BMP_temperature;BMP_pressure;BME280_temperature;BME280_humidity;BME280_pressure;Samples;Min_cycle;Max_cycle;Signal;HPM_P1;HPM_P2
2023/01/02 00:01:51;;;;;;;11.13;6.05;;;10.80;99.90;;;;;;5073750;28;20044;-80
2023/01/02 00:04:17;;;;;;;8.93;6.22;;;10.80;99.90;;;;;;5076369;28;20387;-80
2023/01/02 00:06:43;;;;;;;9.23;6.75;;;10.80;99.90;;;;;;5075536;28;20048;-80
2023/01/02 00:09:08;;;;;;;11.02;5.80;;;10.80;99.90;;;;;;5055713;28;20545;-80
2023/01/02 00:11:34;;;;;;;11.10;6.38;;;10.80;99.90;;;;;;5073936;28;20147;-80
2023/01/02 00:14:00;;;;;;;13.15;6.75;;;10.80;99.90;;;;;;5071477;28;20035;-80
2023/01/02 00:16:26;;;;;;;10.65;6.35;;;10.80;99.90;;;;;;5075008;28;20404;-80
2023/01/02 00:18:51;;;;;;;11.38;5.88;;;10.80;99.90;;;;;;5057627;28;20036;-80
2023/01/02 00:21:17;;;;;;;11.70;7.18;;;10.70;99.90;;;;;;5074536;28;20131;-80
2023/01/02 00:23:43;;;;;;;11.68;6.57;;;10.80;99.90;;;;;;5073348;28;20054;-80
2023/01/02 00:26:09;;;;;;;14.07;6.70;;;10.70;99.90;;;;;;5073144;28;20035;-80
2023/01/02 00:28:36;;;;;;;13.98;7.97;;;10.80;99.90;;;;;;5055317;28;20484;-80
2023/01/02 00:31:07;;;;;;;16.70;7.50;;;10.80;99.90;;;;;;5072513;28;20071;-80
2023/01/02 00:33:33;;;;;;;14.68;7.10;;;10.80;99.90;;;;;;5073317;28;20035;-80
2023/01/02 00:36:03;;;;;;;8.57;6.35;;;10.80;99.90;;;;;;5072857;28;20392;-80
2023/01/02 00:38:29;;;;;;;12.13;7.35;;;10.80;99.90;;;;;;5072814;28;20059;-80
2023/01/02 00:40:54;;;;;;;17.80;7.78;;;10.70;99.90;;;;;;5046621;28;20044;-80
2023/01/02 00:43:20;;;;;;;13.60;7.43;;;10.80;99.90;;;;;;5071469;28;20601;-81
2023/01/02 00:45:47;;;;;;;13.63;7.57;;;10.80;99.90;;;;;;5072869;28;20403;-80
2023/01/02 00:48:13;;;;;;;16.02;8.13;;;10.90;99.90;;;;;;5073413;28;20044;-80
2023/01/02 00:50:39;;;;;;;10.57;7.05;;;10.90;99.90;;;;;;5056003;28;20044;-80
2023/01/02 00:53:04;;;;;;;11.82;7.15;;;10.90;99.90;;;;;;5074390;28;20048;-80
2023/01/02 00:55:30;;;;;;;12.50;7.20;;;10.90;99.90;;;;;;5056630;28;20118;-80
2023/01/02 00:57:56;;;;;;;16.75;7.55;;;10.90;99.90;;;;;;5073750;28;20162;-80
2023/01/02 01:00:21;;;;;;;11.80;7.15;;;11.00;99.90;;;;;;5073957;28;20052;-81
2023/01/02 01:02:47;;;;;;;14.18;7.85;;;10.90;99.90;;;;;;5074221;28;20055;-80
2023/01/02 01:05:13;;;;;;;11.10;7.70;;;10.90;99.90;;;;;;5040402;28;20066;-80
2023/01/02 01:07:38;;;;;;;12.57;6.82;;;10.90;99.90;;;;;;5073815;28;20040;-80
2023/01/02 01:10:04;;;;;;;9.05;5.43;;;10.90;99.90;;;;;;5073654;28;20063;-81
2023/01/02 01:12:30;;;;;;;14.55;8.60;;;11.00;99.90;;;;;;5054298;28;20051;-80
2023/01/02 01:14:56;;;;;;;14.43;8.13;;;11.00;99.90;;;;;;5056205;28;20036;-80
2023/01/02 01:17:21;;;;;;;14.48;7.47;;;11.00;99.90;;;;;;5056354;28;20493;-80
2023/01/02 01:19:47;;;;;;;15.15;8.15;;;11.00;99.90;;;;;;5072335;28;20074;-80
2023/01/02 01:22:13;;;;;;;13.75;7.45;;;11.00;99.90;;;;;;5072928;28;20039;-80
2023/01/02 01:24:38;;;;;;;15.40;7.70;;;11.00;99.90;;;;;;5072567;28;20499;-80
2023/01/02 01:27:04;;;;;;;15.55;7.97;;;11.00;99.90;;;;;;5054448;28;20412;-81
2023/01/02 01:29:30;;;;;;;12.50;7.30;;;11.00;99.90;;;;;;5072023;28;20044;-81
2023/01/02 01:31:55;;;;;;;12.57;7.97;;;11.00;99.90;;;;;;5055550;28;20446;-80
2023/01/02 01:34:21;;;;;;;13.27;7.88;;;11.00;99.90;;;;;;5072321;28;20135;-80
2023/01/02 01:36:47;;;;;;;11.48;6.75;;;11.00;99.90;;;;;;5038857;28;20487;-80
2023/01/02 01:39:12;;;;;;;12.25;7.65;;;11.00;99.90;;;;;;5071908;28;20634;-80
2023/01/02 01:41:38;;;;;;;16.20;7.18;;;11.00;99.90;;;;;;5054726;28;20074;-80
2023/01/02 01:44:41;;;;;;;14.90;8.60;;;11.00;99.90;;;;;;5071328;28;20046;-80
2023/01/02 01:47:27;;;;;;;9.88;6.15;;;11.00;99.90;;;;;;5071830;28;20096;-80
2023/01/02 01:50:17;;;;;;;13.35;8.27;;;11.10;99.90;;;;;;5053891;28;20174;-80
2023/01/02 01:53:08;;;;;;;21.30;8.40;;;11.00;99.90;;;;;;5070946;28;20119;-80
2023/01/02 01:55:42;;;;;;;10.45;6.03;;;11.00;99.90;;;;;;5069707;28;20131;-80
2023/01/02 01:58:10;;;;;;;15.40;8.02;;;11.00;99.90;;;;;;5071002;28;20361;-80
2023/01/02 02:00:38;;;;;;;15.77;7.80;;;11.00;99.90;;;;;;5054763;28;20572;-80
2023/01/02 02:03:11;;;;;;;13.93;7.80;;;11.00;99.90;;;;;;5054985;28;20439;-81
2023/01/02 02:05:38;;;;;;;18.65;7.70;;;10.50;99.90;;;;;;5054930;28;20046;-80
2023/01/02 02:08:28;;;;;;;21.17;8.95;;;11.00;99.90;;;;;;5045171;28;20032;-80
2023/01/02 02:10:57;;;;;;;14.52;6.82;;;11.10;99.90;;;;;;5070385;28;20492;-80
2023/01/02 02:13:22;;;;;;;17.08;7.15;;;11.10;99.90;;;;;;5070536;28;20039;-80
2023/01/02 02:15:56;;;;;;;17.90;7.88;;;11.10;99.90;;;;;;5071600;28;20081;-80
2023/01/02 02:18:44;;;;;;;14.10;7.43;;;11.10;99.90;;;;;;5071102;28;20036;-80
2023/01/02 02:21:28;;;;;;;15.10;6.72;;;11.10;99.90;;;;;;5055478;28;20048;-80
2023/01/02 02:24:19;;;;;;;13.02;8.15;;;11.10;99.90;;;;;;5071582;28;20044;-80
2023/01/02 02:26:55;;;;;;;13.82;7.35;;;11.10;99.90;;;;;;5070086;28;20131;-81
2023/01/02 02:29:39;;;;;;;;;;;11.10;99.90;;;;;;5071675;28;20048;-80
2023/01/02 02:32:24;;;;;;;14.95;7.78;;;11.10;99.90;;;;;;5055159;28;20279;-80
2023/01/02 02:35:09;;;;;;;10.30;5.90;;;11.10;99.90;;;;;;5044895;28;20043;-80
2023/01/02 02:38:02;;;;;;;10.63;7.18;;;11.10;99.90;;;;;;5072197;28;20392;-80
2023/01/02 02:40:56;;;;;;;20.40;7.55;;;11.10;99.90;;;;;;5073670;28;20044;-80
2023/01/02 02:44:05;;;;;;;12.90;7.32;;;11.20;99.90;;;;;;5056020;28;20501;-80
2023/01/02 02:47:06;;;;;;;13.88;7.38;;;11.20;99.90;;;;;;5062835;28;20479;-80
2023/01/02 02:49:44;;;;;;;11.85;6.00;;;11.20;99.90;;;;;;5070903;28;20044;-80
2023/01/02 02:52:09;;;;;;;12.65;7.35;;;11.10;99.90;;;;;;5070796;28;20048;-80
2023/01/02 02:55:07;;;;;;;15.57;7.00;;;11.20;99.90;;;;;;5070598;28;20054;-80
2023/01/02 02:57:34;;;;;;;13.82;6.60;;;11.20;99.90;;;;;;5052335;28;20048;-80
2023/01/02 03:00:06;;;;;;;12.02;6.03;;;11.20;99.90;;;;;;5074531;28;20052;-81
2023/01/02 03:02:31;;;;;;;13.07;6.65;;;11.20;99.90;;;;;;5057545;28;20043;-81
2023/01/02 03:05:01;;;;;;;13.35;7.60;;;11.20;99.90;;;;;;5074725;28;20044;-81
2023/01/02 03:07:45;;;;;;;14.18;6.88;;;11.20;99.90;;;;;;5074044;28;20036;-81
2023/01/02 03:10:30;;;;;;;13.88;7.28;;;11.30;99.90;;;;;;5074445;28;20475;-81
2023/01/02 03:13:27;;;;;;;13.82;7.03;;;11.30;99.90;;;;;;5057013;28;20048;-81
2023/01/02 03:16:07;;;;;;;15.45;7.38;;;11.30;99.90;;;;;;5072658;28;21001;-81
2023/01/02 03:18:55;;;;;;;15.30;7.18;;;11.30;99.90;;;;;;5072829;28;20040;-81
2023/01/02 03:21:37;;;;;;;14.23;6.88;;;11.30;99.90;;;;;;5073083;28;20028;-81
2023/01/02 03:24:09;;;;;;;21.83;7.22;;;11.30;99.90;;;;;;5072942;28;20492;-81
2023/01/02 03:26:40;;;;;;;13.50;6.13;;;11.30;99.90;;;;;;5073211;28;20415;-81
2023/01/02 03:29:29;;;;;;;11.23;6.47;;;11.20;99.90;;;;;;5073886;28;20050;-81
2023/01/02 03:31:55;;;;;;;12.07;6.70;;;11.30;99.90;;;;;;5072988;28;20102;-82
2023/01/02 03:34:28;;;;;;;13.27;7.57;;;11.30;99.90;;;;;;5074074;28;20043;-81
2023/01/02 03:37:02;;;;;;;17.13;7.97;;;11.30;99.90;;;;;;5073453;28;20143;-81
2023/01/02 03:39:31;;;;;;;13.80;6.53;;;11.30;99.90;;;;;;5072711;28;20101;-81
2023/01/02 03:42:10;;;;;;;12.63;7.47;;;11.30;99.90;;;;;;5074198;28;20056;-81
2023/01/02 03:44:54;;;;;;;17.15;8.40;;;11.30;99.90;;;;;;5074254;28;20047;-81
2023/01/02 03:47:26;;;;;;;10.52;6.88;;;11.30;99.90;;;;;;5074019;28;20048;-80
2023/01/02 03:49:56;;;;;;;14.75;7.78;;;11.30;99.90;;;;;;5056538;28;20500;-81
2023/01/02 03:52:22;;;;;;;14.32;7.38;;;11.30;99.90;;;;;;5072054;28;20131;-81
2023/01/02 03:54:48;;;;;;;13.75;7.93;;;11.30;99.90;;;;;;5054301;28;20875;-80
2023/01/02 03:57:25;;;;;;;11.27;6.97;;;11.30;99.90;;;;;;5074395;28;20079;-80
2023/01/02 04:00:05;;;;;;;14.32;5.22;;;11.20;99.90;;;;;;5073384;28;20036;-80
2023/01/02 04:02:35;;;;;;;11.50;7.30;;;11.20;99.90;;;;;;5056909;28;20067;-81
2023/01/02 04:05:19;;;;;;;12.13;7.63;;;11.20;99.90;;;;;;5073838;28;20067;-81
2023/01/02 04:08:04;;;;;;;14.68;7.57;;;11.30;99.90;;;;;;5072415;28;20456;-80
2023/01/02 04:10:30;;;;;;;14.60;8.18;;;11.30;99.90;;;;;;5073170;28;20169;-81
2023/01/02 04:13:01;;;;;;;14.63;6.00;;;11.30;99.90;;;;;;5073505;28;20129;-80
2023/01/02 04:15:32;;;;;;;12.93;7.35;;;11.30;99.90;;;;;;5073117;28;20040;-80
2023/01/02 04:18:20;;;;;;;14.35;7.13;;;11.40;99.90;;;;;;5073937;28;20067;-80
2023/01/02 04:20:50;;;;;;;11.85;6.25;;;11.30;99.90;;;;;;5082692;28;20071;-80
2023/01/02 04:23:35;;;;;;;14.35;6.72;;;11.30;99.90;;;;;;5055631;28;20052;-80
2023/01/02 04:26:14;;;;;;;13.63;7.82;;;11.30;99.90;;;;;;5073435;28;20096;-80
2023/01/02 04:28:40;;;;;;;12.15;7.47;;;11.40;99.90;;;;;;5072876;28;20079;-80
2023/01/02 04:31:14;;;;;;;13.50;7.03;;;11.30;99.90;;;;;;5056594;28;20096;-80
2023/01/02 04:33:48;;;;;;;11.40;6.88;;;11.40;99.90;;;;;;5071761;28;20085;-80
2023/01/02 04:36:15;;;;;;;14.88;6.28;;;11.40;99.90;;;;;;5071754;28;20039;-80
2023/01/02 04:38:42;;;;;;;14.65;7.70;;;11.40;99.90;;;;;;5072825;28;20093;-81
2023/01/02 04:41:11;;;;;;;16.02;8.10;;;11.40;99.90;;;;;;5072892;28;20039;-80
2023/01/02 04:43:36;;;;;;;15.50;7.80;;;11.40;99.90;;;;;;5073217;28;20044;-81
2023/01/02 04:46:02;;;;;;;17.00;7.30;;;11.40;99.90;;;;;;5040975;28;20119;-81
2023/01/02 04:48:28;;;;;;;10.98;7.00;;;11.50;99.90;;;;;;5072269;28;20044;-81
2023/01/02 04:50:54;;;;;;;12.68;6.50;;;11.50;99.90;;;;;;5071996;28;20048;-80
2023/01/02 04:53:20;;;;;;;15.02;7.80;;;11.50;99.90;;;;;;5072506;28;20096;-80
2023/01/02 04:55:46;;;;;;;15.57;7.25;;;11.50;99.90;;;;;;5072529;28;20040;-80
2023/01/02 04:58:11;;;;;;;12.20;6.95;;;11.50;99.90;;;;;;5047949;28;20388;-80
2023/01/02 05:00:37;;;;;;;13.50;7.00;;;11.50;99.90;;;;;;5072430;28;20039;-80
2023/01/02 05:03:03;;;;;;;15.63;6.28;;;11.60;99.90;;;;;;5072703;28;20051;-80
2023/01/02 05:05:29;;;;;;;12.20;7.13;;;11.60;99.90;;;;;;5054577;28;20051;-80
2023/01/02 05:07:58;;;;;;;15.43;6.38;;;11.70;99.90;;;;;;5055473;28;20051;-80
2023/01/02 05:10:24;;;;;;;11.90;5.97;;;11.70;99.90;;;;;;5055468;28;20040;-80
2023/01/02 05:12:49;;;;;;;11.02;6.70;;;11.80;99.90;;;;;;5072031;28;20032;-80
2023/01/02 05:15:15;;;;;;;15.80;6.65;;;11.80;99.90;;;;;;5071793;28;20036;-80
2023/01/02 05:17:41;;;;;;;14.60;7.07;;;11.80;99.90;;;;;;5070601;28;20115;-80
2023/01/02 05:20:10;;;;;;;14.00;7.28;;;11.80;99.90;;;;;;5071341;28;20032;-81
2023/01/02 05:25:26;;;;;;;11.05;7.13;;;11.80;99.90;;;;;;5071548;28;20082;-80
2023/01/02 05:27:53;;;;;;;10.95;6.47;;;11.90;99.90;;;;;;5046987;28;20055;-80
2023/01/02 05:30:19;;;;;;;12.80;6.60;;;11.90;99.90;;;;;;5055305;28;20400;-80
2023/01/02 05:32:45;;;;;;;15.57;7.45;;;11.90;99.90;;;;;;5071765;28;20044;-80
2023/01/02 05:35:11;;;;;;;13.82;6.57;;;11.90;99.90;;;;;;5070939;28;20315;-80
2023/01/02 05:37:37;;;;;;;15.40;7.43;;;11.90;99.90;;;;;;5071867;28;20036;-80
2023/01/02 05:40:03;;;;;;;15.50;6.57;;;11.90;99.90;;;;;;5084465;28;20058;-80
2023/01/02 05:42:28;;;;;;;12.02;6.47;;;11.90;99.90;;;;;;5050987;28;20036;-80
2023/01/02 05:44:54;;;;;;;11.60;5.32;;;12.00;99.90;;;;;;5050404;28;20044;-80
2023/01/02 05:47:20;;;;;;;14.35;6.47;;;12.00;99.90;;;;;;5065445;28;20032;-80
2023/01/02 05:49:45;;;;;;;10.20;5.80;;;12.00;99.90;;;;;;5049929;28;20549;-81
2023/01/02 05:52:11;;;;;;;16.27;6.50;;;12.00;99.90;;;;;;5067295;28;20045;-86
2023/01/02 05:54:37;;;;;;;13.55;5.82;;;12.00;99.90;;;;;;5051255;28;20041;-87
2023/01/02 05:57:02;;;;;;;16.05;5.50;;;12.00;99.90;;;;;;5068274;28;20036;-87
2023/01/02 05:59:28;;;;;;;10.43;5.75;;;12.10;99.90;;;;;;5066404;28;20113;-86
2023/01/02 06:01:54;;;;;;;9.38;5.50;;;12.10;99.90;;;;;;5018036;28;20132;-87
2023/01/02 06:04:20;;;;;;;10.27;6.03;;;12.10;99.90;;;;;;5068093;28;20039;-87
2023/01/02 06:06:46;;;;;;;12.02;6.00;;;12.10;99.90;;;;;;5034407;28;20063;-86
2023/01/02 06:09:13;;;;;;;10.10;5.53;;;12.10;99.90;;;;;;5066340;28;20037;-86
2023/01/02 06:11:39;;;;;;;9.27;5.40;;;12.10;99.90;;;;;;5067307;28;20045;-86
2023/01/02 06:14:05;;;;;;;11.25;5.95;;;12.10;99.90;;;;;;5067999;28;20594;-86
2023/01/02 06:16:31;;;;;;;12.00;6.10;;;12.10;99.90;;;;;;5050259;28;20036;-86
2023/01/02 06:18:57;;;;;;;9.55;5.70;;;12.10;99.90;;;;;;5067856;28;20036;-86
2023/01/02 06:21:23;;;;;;;11.93;5.55;;;12.00;99.90;;;;;;5051398;28;20382;-86
2023/01/02 06:23:53;;;;;;;11.30;5.80;;;12.00;99.90;;;;;;5051134;28;20040;-86
2023/01/02 06:26:20;;;;;;;10.52;6.13;;;12.00;99.90;;;;;;5051613;28;20036;-85
2023/01/02 06:28:50;;;;;;;13.75;6.93;;;12.00;99.90;;;;;;5058154;28;20121;-85
2023/01/02 06:31:17;;;;;;;11.15;6.53;;;12.00;99.90;;;;;;5071486;28;20059;-86
2023/01/02 06:33:43;;;;;;;10.07;6.53;;;12.00;99.90;;;;;;5072505;28;20369;-86
2023/01/02 06:36:12;;;;;;;13.02;6.30;;;12.00;99.90;;;;;;5072589;28;20277;-86
2023/01/02 06:38:37;;;;;;;11.02;6.50;;;12.00;99.90;;;;;;5053384;28;20053;-83
2023/01/02 06:41:04;;;;;;;8.98;6.57;;;12.00;99.90;;;;;;5022392;28;20128;-82
2023/01/02 06:43:31;;;;;;;6.88;3.60;;;12.00;99.90;;;;;;5055270;28;20044;-83
2023/01/02 06:46:01;;;;;;;5.10;3.10;;;11.90;99.90;;;;;;5071452;28;20102;-82
2023/01/02 06:48:27;;;;;;;3.38;2.70;;;11.80;99.90;;;;;;5054532;28;20071;-82
2023/01/02 06:50:53;;;;;;;4.43;2.50;;;11.70;99.90;;;;;;5055190;28;20047;-82
2023/01/02 06:53:18;;;;;;;3.45;2.53;;;11.50;99.90;;;;;;5037998;28;20044;-83
2023/01/02 06:55:56;;;;;;;3.80;2.85;;;11.30;99.90;;;;;;5054776;28;20051;-82
2023/01/02 06:58:22;;;;;;;4.35;3.08;;;11.20;99.90;;;;;;5070755;28;20033;-82
2023/01/02 07:00:48;;;;;;;4.65;3.67;;;11.20;99.90;;;;;;5054313;28;20110;-82
2023/01/02 07:03:15;;;;;;;4.63;3.90;;;11.00;99.90;;;;;;5054765;28;20048;-82
2023/01/02 07:05:41;;;;;;;4.85;3.72;;;11.00;99.90;;;;;;5053311;28;20047;-82
2023/01/02 07:08:08;;;;;;;4.00;3.22;;;10.90;99.90;;;;;;5069463;28;20055;-83
2023/01/02 07:10:33;;;;;;;5.00;3.92;;;10.80;99.90;;;;;;5037390;28;20048;-84
2023/01/02 07:12:59;;;;;;;5.35;4.13;;;10.70;99.90;;;;;;5054149;28;20036;-85
2023/01/02 07:15:25;;;;;;;5.28;4.22;;;10.70;99.90;;;;;;5038441;28;20117;-84
2023/01/02 07:17:51;;;;;;;5.38;4.22;;;10.70;99.90;;;;;;5054816;28;20040;-84
2023/01/02 07:20:17;;;;;;;5.05;4.53;;;10.60;99.90;;;;;;5054947;28;20044;-84
2023/01/02 07:22:47;;;;;;;6.28;4.72;;;10.60;99.90;;;;;;5054376;28;20054;-83
2023/01/02 07:25:13;;;;;;;7.50;5.57;;;10.50;99.90;;;;;;5054183;28;20128;-83
2023/01/02 07:27:38;;;;;;;6.80;5.60;;;10.40;99.90;;;;;;5037679;28;20119;-83
2023/01/02 07:30:05;;;;;;;8.20;5.85;;;10.40;99.90;;;;;;5054208;28;20440;-84
2023/01/02 07:32:30;;;;;;;7.72;5.55;;;10.40;99.90;;;;;;5053354;28;20197;-86
2023/01/02 07:34:56;;;;;;;6.85;5.45;;;10.30;99.90;;;;;;5036976;28;20467;-85
2023/01/02 07:37:21;;;;;;;7.10;4.85;;;10.30;99.90;;;;;;5020922;28;20134;-86
2023/01/02 07:39:47;;;;;;;7.13;4.65;;;10.20;99.90;;;;;;5020951;28;20516;-86
2023/01/02 07:42:13;;;;;;;8.45;4.90;;;10.10;99.90;;;;;;5036686;28;20048;-85
2023/01/02 07:44:38;;;;;;;6.95;4.80;;;10.00;99.90;;;;;;5020537;28;20041;-85
2023/01/02 07:47:04;;;;;;;7.40;5.50;;;9.90;99.90;;;;;;5038155;28;20044;-87
2023/01/02 07:49:30;;;;;;;9.35;5.50;;;9.90;99.90;;;;;;5054299;28;20725;-87
2023/01/02 07:51:55;;;;;;;8.05;5.35;;;9.80;99.90;;;;;;5053997;28;20067;-87
2023/01/02 07:54:21;;;;;;;8.57;5.30;;;9.80;99.90;;;;;;5036717;28;20044;-87
2023/01/02 07:56:47;;;;;;;9.65;5.38;;;9.80;99.90;;;;;;5036110;28;20040;-87
2023/01/02 07:59:12;;;;;;;9.63;4.50;;;9.70;99.90;;;;;;5053476;28;20115;-87
2023/01/02 08:01:38;;;;;;;4.32;2.85;;;9.70;99.90;;;;;;5021261;28;20043;-87
2023/01/02 08:04:04;;;;;;;3.72;2.15;;;9.70;99.90;;;;;;5020263;28;20045;-87
2023/01/02 08:06:30;;;;;;;3.45;1.65;;;9.60;99.90;;;;;;5054600;28;20072;-87
2023/01/02 08:08:55;;;;;;;3.55;1.98;;;9.50;99.90;;;;;;5037324;28;20036;-87
2023/01/02 08:11:21;;;;;;;3.95;1.90;;;9.40;99.90;;;;;;5036681;28;20079;-87
2023/01/02 08:13:48;;;;;;;3.10;1.95;;;9.30;99.90;;;;;;5053244;28;20048;-87
2023/01/02 08:16:19;;;;;;;3.08;1.88;;;9.40;99.90;;;;;;5054369;28;20036;-88
2023/01/02 08:18:46;;;;;;;5.43;1.83;;;9.30;99.90;;;;;;5051580;28;20040;-87
2023/01/02 08:21:12;;;;;;;3.40;1.50;;;9.20;99.90;;;;;;5054467;28;20071;-87
2023/01/02 08:23:38;;;;;;;3.53;1.85;;;9.20;99.90;;;;;;5028113;28;20048;-88
2023/01/02 08:26:06;;;;;;;4.40;2.00;;;9.30;99.90;;;;;;5053813;28;20415;-88
2023/01/02 08:28:33;;;;;;;2.97;1.65;;;9.20;99.90;;;;;;5067772;28;20040;-88
2023/01/02 08:30:59;;;;;;;4.25;2.13;;;9.20;99.90;;;;;;5035124;28;20098;-87
2023/01/02 08:33:25;;;;;;;4.40;2.10;;;9.20;99.90;;;;;;5071526;28;20742;-87
2023/01/02 08:35:51;;;;;;;3.85;2.10;;;9.20;99.90;;;;;;5054781;28;20064;-87
2023/01/02 08:38:17;;;;;;;4.20;2.20;;;9.20;99.90;;;;;;5073535;28;20384;-87
2023/01/02 08:40:43;;;;;;;4.35;2.00;;;9.10;99.90;;;;;;5058188;28;20079;-87
2023/01/02 08:43:09;;;;;;;3.67;1.70;;;9.10;99.90;;;;;;5058281;28;20075;-87
2023/01/02 08:45:35;;;;;;;4.47;1.90;;;9.10;99.90;;;;;;5040951;28;20044;-87
2023/01/02 08:48:01;;;;;;;3.30;1.85;;;9.10;99.90;;;;;;5058364;28;20044;-87
2023/01/02 08:50:27;;;;;;;3.88;1.73;;;9.10;99.90;;;;;;5058484;28;20105;-88
2023/01/02 08:52:53;;;;;;;2.90;1.55;;;9.00;99.90;;;;;;5054807;28;20032;-88
2023/01/02 08:55:19;;;;;;;4.88;1.88;;;9.10;99.90;;;;;;5055757;28;20067;-87
2023/01/02 08:57:44;;;;;;;3.78;1.75;;;9.00;99.90;;;;;;5056610;28;20036;-87
2023/01/02 09:00:11;;;;;;;4.07;1.60;;;9.00;99.90;;;;;;5040453;28;20059;-87
2023/01/02 09:02:37;;;;;;;2.92;1.52;;;9.00;99.90;;;;;;5037515;28;20119;-87
2023/01/02 09:05:02;;;;;;;5.65;1.85;;;9.00;99.90;;;;;;5056147;28;20124;-87
2023/01/02 09:07:31;;;;;;;4.60;1.65;;;9.00;99.90;;;;;;5080797;28;20457;-85
2023/01/02 09:09:57;;;;;;;4.10;1.65;;;8.90;99.90;;;;;;5058471;28;20032;-86
2023/01/02 09:12:23;;;;;;;5.32;2.10;;;8.90;99.90;;;;;;5040334;28;20040;-87
2023/01/02 09:14:48;;;;;;;8.00;3.90;;;8.90;99.90;;;;;;5022959;28;20396;-84
2023/01/02 09:17:14;;;;;;;5.32;2.90;;;8.90;99.90;;;;;;5023324;28;20161;-85
2023/01/02 09:19:41;;;;;;;6.20;3.00;;;8.90;99.90;;;;;;5040784;28;20036;-85
2023/01/02 09:22:07;;;;;;;6.32;2.75;;;8.90;99.90;;;;;;5041615;28;20042;-85
2023/01/02 09:24:33;;;;;;;4.88;2.30;;;8.80;99.90;;;;;;5057013;28;20096;-86
2023/01/02 09:26:59;;;;;;;4.35;2.10;;;8.90;99.90;;;;;;5055008;28;20044;-86
2023/01/02 09:29:25;;;;;;;3.92;1.75;;;8.80;99.90;;;;;;5071955;28;20071;-86
2023/01/02 09:31:51;;;;;;;4.25;2.00;;;8.80;99.90;;;;;;5056231;28;20051;-85
2023/01/02 09:34:17;;;;;;;5.05;1.70;;;8.90;99.90;;;;;;5055363;28;20484;-86
2023/01/02 09:36:43;;;;;;;4.47;1.85;;;8.90;99.90;;;;;;5024219;28;20071;-86
2023/01/02 09:39:11;;;;;;;3.22;1.90;;;8.90;99.90;;;;;;5055791;28;20056;-86
2023/01/02 09:41:51;;;;;;;5.47;2.10;;;8.90;99.90;;;;;;5056989;28;20779;-86
2023/01/02 09:44:38;;;;;;;5.72;2.08;;;8.90;99.90;;;;;;5055808;28;20079;-85
2023/01/02 09:47:22;;;;;;;4.68;2.05;;;9.10;99.90;;;;;;5047366;28;20514;-86
2023/01/02 09:49:55;;;;;;;3.92;2.17;;;8.90;99.90;;;;;;5072004;28;20040;-86
2023/01/02 09:52:23;;;;;;;4.22;1.63;;;9.10;99.90;;;;;;5073133;28;20065;-86
2023/01/02 09:54:49;;;;;;;6.25;2.08;;;8.90;99.90;;;;;;5073149;28;20097;-86
2023/01/02 09:57:27;;;;;;;3.05;1.85;;;9.00;99.90;;;;;;5054583;28;20407;-86
2023/01/02 10:00:03;;;;;;;2.42;1.42;;;9.10;99.90;;;;;;5056449;28;20031;-86
2023/01/02 10:02:29;;;;;;;;;;;9.00;99.90;;;;;;5056129;28;20487;-85
2023/01/02 10:05:04;;;;;;;3.03;1.60;;;9.10;99.90;;;;;;5046354;28;19924;-86
2023/01/02 10:07:46;;;;;;;3.75;1.88;;;9.10;99.90;;;;;;5051397;28;20499;-86
2023/01/02 10:10:12;;;;;;;3.42;1.70;;;9.10;99.90;;;;;;5050120;28;20081;-86
2023/01/02 10:12:58;;;;;;;3.55;1.88;;;9.10;99.90;;;;;;5053143;28;20079;-86
2023/01/02 10:15:29;;;;;;;2.30;1.67;;;9.10;99.90;;;;;;5052631;28;20036;-86
2023/01/02 10:18:10;;;;;;;5.68;1.67;;;9.10;99.90;;;;;;5037454;28;20074;-86
2023/01/02 10:20:40;;;;;;;2.90;1.70;;;9.20;99.90;;;;;;5056479;28;20040;-86
2023/01/02 10:23:12;;;;;;;3.50;1.77;;;9.20;99.90;;;;;;5054693;28;20051;-86
2023/01/02 10:26:01;;;;;;;3.97;2.38;;;9.10;99.90;;;;;;5053650;28;20036;-87
2023/01/02 10:28:45;;;;;;;4.43;2.30;;;9.10;99.90;;;;;;5067518;28;20147;-86
2023/01/02 10:31:20;;;;;;;3.78;2.20;;;9.10;99.90;;;;;;5070393;28;20076;-86
2023/01/02 10:33:58;;;;;;;4.50;2.60;;;9.10;99.90;;;;;;5070800;28;20402;-86
2023/01/02 10:36:25;;;;;;;5.15;3.00;;;9.10;99.90;;;;;;5043795;28;20530;-86
2023/01/02 10:38:57;;;;;;;5.93;3.13;;;9.10;99.90;;;;;;5067082;28;20040;-86
2023/01/02 10:41:25;;;;;;;5.93;3.45;;;9.10;99.90;;;;;;5052996;28;20556;-86
2023/01/02 10:43:56;;;;;;;10.57;4.50;;;9.10;99.90;;;;;;5051940;28;20055;-86
2023/01/02 10:46:21;;;;;;;13.35;5.70;;;9.20;99.90;;;;;;5067766;28;20032;-86
2023/01/02 10:48:48;;;;;;;16.60;7.45;;;9.20;99.90;;;;;;5035637;28;20557;-86
2023/01/02 10:51:15;;;;;;;12.60;6.40;;;9.20;99.90;;;;;;5055823;28;20645;-86
2023/01/02 10:53:41;;;;;;;14.15;6.30;;;9.20;99.90;;;;;;5074496;28;20042;-87
2023/01/02 10:56:25;;;;;;;7.82;3.85;;;9.80;99.90;;;;;;5020074;28;20123;-86
2023/01/02 10:58:52;;;;;;;7.38;3.38;;;9.30;99.90;;;;;;5057870;28;20062;-86
2023/01/02 11:01:20;;;;;;;8.52;3.15;;;9.30;99.90;;;;;;5055782;28;20123;-86
2023/01/02 11:03:48;;;;;;;7.35;3.55;;;9.30;99.90;;;;;;5051936;28;20044;-86
2023/01/02 11:06:20;;;;;;;6.30;3.00;;;9.30;99.90;;;;;;5051932;28;20048;-87
2023/01/02 11:08:56;;;;;;;6.63;3.20;;;9.30;99.90;;;;;;5053732;28;20050;-86
2023/01/02 11:11:23;;;;;;;;;;;9.40;99.90;;;;;;5070019;28;20105;-86
2023/01/02 11:13:56;;;;;;;5.68;3.42;;;9.40;99.90;;;;;;5051589;28;19998;-87
2023/01/02 11:16:25;;;;;;;8.40;3.70;;;9.40;99.90;;;;;;5055501;28;20573;-87
2023/01/02 11:18:55;;;;;;;7.72;3.00;;;9.40;99.90;;;;;;5073882;28;20399;-86
2023/01/02 11:21:28;;;;;;;6.50;2.95;;;9.50;99.90;;;;;;5071872;28;20050;-87
2023/01/02 11:24:18;;;;;;;10.32;3.35;;;9.50;99.90;;;;;;5056408;28;20079;-88
2023/01/02 11:26:49;;;;;;;5.53;2.88;;;9.50;99.90;;;;;;5070904;28;20181;-86
2023/01/02 11:29:21;;;;;;;6.10;3.20;;;9.50;99.90;;;;;;5056495;28;20047;-87
2023/01/02 11:31:50;;;;;;;6.10;2.40;;;9.50;99.90;;;;;;5074571;28;20380;-87
2023/01/02 11:34:59;;;;;;;9.55;3.15;;;9.50;99.90;;;;;;5079793;28;20142;-88
2023/01/02 11:37:26;;;;;;;7.05;2.42;;;10.50;99.90;;;;;;5084643;28;20058;-88
2023/01/02 11:39:58;;;;;;;7.05;1.70;;;9.40;99.90;;;;;;5057306;28;20048;-89
2023/01/02 11:45:21;;;;;;;8.35;1.50;;;9.60;99.90;;;;;;5071257;28;20059;-88
2023/01/02 11:47:49;;;;;;;6.72;2.15;;;9.40;99.90;;;;;;5059059;28;20525;-88
2023/01/02 11:50:26;;;;;;;8.43;2.05;;;9.80;99.90;;;;;;5058322;28;20064;-90
2023/01/02 11:52:57;;;;;;;9.32;2.13;;;9.40;99.90;;;;;;5058350;28;20043;-89
2023/01/02 11:55:36;;;;;;;7.05;1.80;;;9.50;99.90;;;;;;5057434;28;20129;-90
2023/01/02 11:58:06;;;;;;;6.68;2.08;;;9.70;99.90;;;;;;5057802;28;20040;-88
2023/01/02 12:00:37;;;;;;;8.70;1.98;;;9.50;99.90;;;;;;5058928;28;20044;-88
2023/01/02 12:03:14;;;;;;;8.35;3.00;;;9.60;99.90;;;;;;5090626;28;20040;-88
2023/01/02 12:06:12;;;;;;;7.63;1.63;;;9.60;99.90;;;;;;5058798;28;20055;-89
2023/01/02 12:09:00;;;;;;;5.82;1.90;;;9.50;99.90;;;;;;5056155;28;20519;-87
2023/01/02 12:11:40;;;;;;;10.55;2.45;;;9.50;99.90;;;;;;5054798;28;20036;-87
2023/01/02 12:14:50;;;;;;;7.30;2.03;;;9.50;99.90;;;;;;5054511;28;20043;-87
2023/01/02 12:17:40;;;;;;;7.38;2.65;;;9.50;99.90;;;;;;4975899;28;20485;-88
2023/01/02 12:20:16;;;;;;;14.35;2.30;;;9.40;99.90;;;;;;5054621;28;20032;-87
2023/01/02 12:23:20;;;;;;;9.13;1.80;;;9.40;99.90;;;;;;5072689;28;20044;-88
2023/01/02 12:26:12;;;;;;;7.75;1.50;;;9.40;99.90;;;;;;5055921;28;20050;-88
2023/01/02 12:28:54;;;;;;;7.00;1.50;;;9.40;99.90;;;;;;5055700;28;20131;-88
2023/01/02 12:31:48;;;;;;;11.00;2.20;;;9.40;99.90;;;;;;5071225;28;20050;-87
2023/01/02 12:34:38;;;;;;;7.13;1.70;;;9.40;99.90;;;;;;5054479;28;20115;-87
2023/01/02 12:37:28;;;;;;;11.02;1.95;;;9.40;99.90;;;;;;5072857;28;20527;-88
2023/01/02 12:40:26;;;;;;;8.27;1.90;;;9.40;99.90;;;;;;5047612;28;20048;-88
2023/01/02 12:43:13;;;;;;;7.40;1.88;;;9.40;99.90;;;;;;5056747;28;20047;-88
2023/01/02 12:46:05;;;;;;;11.65;2.20;;;9.40;99.90;;;;;;5070606;28;20401;-88
2023/01/02 12:48:56;;;;;;;7.93;2.05;;;9.40;99.90;;;;;;5052792;28;20093;-87
2023/01/02 12:51:55;;;;;;;9.50;2.28;;;9.40;99.90;;;;;;5072651;28;20043;-88
2023/01/02 12:54:27;;;;;;;9.75;2.13;;;9.50;99.90;;;;;;4976333;28;20077;-88
2023/01/02 12:57:04;;;;;;;10.95;2.53;;;9.50;99.90;;;;;;5054126;28;20171;-88
2023/01/02 12:59:50;;;;;;;10.13;2.30;;;9.90;99.90;;;;;;5056848;28;20117;-88
2023/01/02 13:02:46;;;;;;;8.13;2.40;;;9.50;99.90;;;;;;5072076;28;20561;-88
2023/01/02 13:05:25;;;;;;;11.23;3.03;;;9.50;99.90;;;;;;5058004;28;20101;-89
2023/01/02 13:08:04;;;;;;;11.75;2.35;;;9.50;99.90;;;;;;5071968;28;20040;-88
2023/01/02 13:10:30;;;;;;;9.23;2.05;;;9.50;99.90;;;;;;5072254;28;20048;-88
2023/01/02 13:12:57;;;;;;;10.45;2.30;;;9.50;99.90;;;;;;5039670;28;20039;-88
2023/01/02 13:15:35;;;;;;;9.18;2.03;;;9.50;99.90;;;;;;5057675;28;20054;-88